createdAt,value
2018-12-14T00:00:02.132Z,3.11
2018-12-14T00:01:02.127Z,3.11
2018-12-14T00:02:02.132Z,3.12
2018-12-14T00:03:02.068Z,3.14
2018-12-14T00:04:02.074Z,3.07
2018-12-14T00:05:02.084Z,3.04
2018-12-14T00:06:02.023Z,3.02
2018-12-14T00:07:02.012Z,3.05
2018-12-14T00:08:02.004Z,3.05
2018-12-14T00:09:01.992Z,3.02
2018-12-14T00:10:01.986Z,3.07
2018-12-14T00:11:01.968Z,2.94
2018-12-14T00:12:01.963Z,3.04
2018-12-14T00:13:01.947Z,3.07
2018-12-14T00:14:01.938Z,2.99
2018-12-14T00:15:01.924Z,3.05
2018-12-14T00:16:01.919Z,3.17
2018-12-14T00:17:01.908Z,3.35
2018-12-14T00:18:01.891Z,3.32
2018-12-14T00:19:01.877Z,3.29
2018-12-14T00:20:01.867Z,3.27
2018-12-14T00:21:01.859Z,3.29
2018-12-14T00:22:01.846Z,3.35
2018-12-14T00:23:01.837Z,3.35
2018-12-14T00:24:01.830Z,3.35
2018-12-14T00:25:01.812Z,3.40
2018-12-14T00:26:01.801Z,3.32
2018-12-14T00:27:01.797Z,3.22
2018-12-14T00:28:01.779Z,3.12
2018-12-14T00:29:01.767Z,3.02
2018-12-14T00:30:01.767Z,3.08
2018-12-14T00:31:01.759Z,3.05
2018-12-14T00:32:01.734Z,3.09
2018-12-14T00:33:01.730Z,2.97
2018-12-14T00:34:01.713Z,3.04
2018-12-14T00:35:01.699Z,3.08
2018-12-14T00:36:01.690Z,3.07
2018-12-14T00:37:01.680Z,3.00
2018-12-14T00:38:01.667Z,3.11
2018-12-14T00:39:01.655Z,3.09
2018-12-14T00:40:01.644Z,3.12
2018-12-14T00:41:01.633Z,3.04
2018-12-14T00:42:01.630Z,3.02
2018-12-14T00:43:01.614Z,2.91
2018-12-14T00:44:01.601Z,3.02
2018-12-14T00:45:01.590Z,3.04
2018-12-14T00:46:01.581Z,3.08
2018-12-14T00:47:01.575Z,3.02
2018-12-14T00:48:01.557Z,3.11
2018-12-14T00:49:01.551Z,3.20
2018-12-14T00:50:01.537Z,3.00
2018-12-14T00:51:01.525Z,3.09
2018-12-14T00:52:01.513Z,3.12
2018-12-14T00:53:01.508Z,3.07
2018-12-14T00:54:01.490Z,3.11
2018-12-14T00:55:01.479Z,3.17
2018-12-14T00:56:01.471Z,3.12
2018-12-14T00:57:01.459Z,3.07
2018-12-14T00:58:01.449Z,2.94
2018-12-14T00:59:01.441Z,2.91
2018-12-14T01:00:01.425Z,2.91
2018-12-14T01:01:01.420Z,2.87
2018-12-14T01:02:01.403Z,2.99
2018-12-14T01:03:01.389Z,2.99
2018-12-14T01:04:01.379Z,2.91
2018-12-14T01:05:01.366Z,2.93
2018-12-14T01:06:01.358Z,2.93
2018-12-14T01:07:01.345Z,2.87
2018-12-14T01:08:01.335Z,2.89
2018-12-14T01:09:01.326Z,3.00
2018-12-14T01:10:01.313Z,3.08
2018-12-14T01:11:01.311Z,3.08
2018-12-14T01:12:01.296Z,3.05
2018-12-14T01:13:01.278Z,2.84
2018-12-14T01:14:01.273Z,2.76
2018-12-14T01:15:01.258Z,2.90
2018-12-14T01:16:01.248Z,2.73
2018-12-14T01:17:01.236Z,2.87
2018-12-14T01:18:01.223Z,2.90
2018-12-14T01:19:01.210Z,2.89
2018-12-14T01:20:01.201Z,2.97
2018-12-14T01:21:01.189Z,2.99
2018-12-14T01:22:01.179Z,2.87
2018-12-14T01:23:01.167Z,2.87
2018-12-14T01:24:01.156Z,2.99
2018-12-14T01:25:01.145Z,3.07
2018-12-14T01:26:01.134Z,2.97
2018-12-14T01:27:01.124Z,3.04
2018-12-14T01:28:01.111Z,2.86
2018-12-14T01:29:01.099Z,2.89
2018-12-14T01:30:01.090Z,2.89
2018-12-14T01:31:01.077Z,2.89
2018-12-14T01:32:01.068Z,2.79
2018-12-14T01:33:01.058Z,2.81
2018-12-14T01:34:01.044Z,2.81
2018-12-14T01:35:01.032Z,2.90
2018-12-14T01:36:01.022Z,2.89
2018-12-14T01:37:01.009Z,2.90
2018-12-14T01:38:01.007Z,2.87
2018-12-14T01:39:00.994Z,2.91
2018-12-14T01:40:00.975Z,2.86
2018-12-14T01:41:00.965Z,2.93
2018-12-14T01:42:04.816Z,3.04
2018-12-14T01:43:00.948Z,2.90
2018-12-14T01:44:00.933Z,2.91
2018-12-14T01:45:00.922Z,2.86
2018-12-14T01:46:00.910Z,2.79
2018-12-14T01:47:00.907Z,2.79
2018-12-14T01:48:00.888Z,2.86
2018-12-14T01:49:00.878Z,2.87
2018-12-14T01:50:00.864Z,2.94
2018-12-14T01:51:00.855Z,2.78
2018-12-14T01:52:00.845Z,2.75
2018-12-14T01:53:00.833Z,2.79
2018-12-14T01:54:00.824Z,2.81
2018-12-14T01:55:00.811Z,2.84
2018-12-14T01:56:00.799Z,2.81
2018-12-14T01:57:00.787Z,2.82
2018-12-14T01:58:00.776Z,2.79
2018-12-14T01:59:00.766Z,2.76
2018-12-14T02:00:00.759Z,2.81
2018-12-14T02:01:00.745Z,2.78
2018-12-14T02:02:00.735Z,2.68
2018-12-14T02:03:00.725Z,2.71
2018-12-14T02:04:00.712Z,2.60
2018-12-14T02:05:00.702Z,2.68
2018-12-14T02:06:00.691Z,2.71
2018-12-14T02:07:00.677Z,2.71
2018-12-14T02:08:00.671Z,2.69
2018-12-14T02:09:00.655Z,2.62
2018-12-14T02:10:00.647Z,2.60
2018-12-14T02:11:00.635Z,2.68
2018-12-14T02:12:00.625Z,2.57
2018-12-14T02:13:00.614Z,2.53
2018-12-14T02:14:00.603Z,2.56
2018-12-14T02:15:00.592Z,2.68
2018-12-14T02:16:00.585Z,2.71
2018-12-14T02:17:00.571Z,2.59
2018-12-14T02:18:00.565Z,2.57
2018-12-14T02:19:00.550Z,2.72
2018-12-14T02:20:00.537Z,2.72
2018-12-14T02:21:00.529Z,2.78
2018-12-14T02:22:00.515Z,2.72
2018-12-14T02:23:00.505Z,2.73
2018-12-14T02:24:00.494Z,2.76
2018-12-14T02:25:00.490Z,2.71
2018-12-14T02:26:00.472Z,2.76
2018-12-14T02:27:00.469Z,2.73
2018-12-14T02:28:00.464Z,2.56
2018-12-14T02:29:00.441Z,2.62
2018-12-14T02:30:00.428Z,2.57
2018-12-14T02:31:00.419Z,2.59
2018-12-14T02:32:00.405Z,2.72
2018-12-14T02:33:00.395Z,2.53
2018-12-14T02:34:00.384Z,2.60
2018-12-14T02:35:00.375Z,2.46
2018-12-14T02:36:00.368Z,2.46
2018-12-14T02:37:00.360Z,2.47
2018-12-14T02:38:00.346Z,2.42
2018-12-14T02:39:00.331Z,2.49
2018-12-14T02:40:00.328Z,2.41
2018-12-14T02:41:00.312Z,2.42
2018-12-14T02:42:00.306Z,2.46
2018-12-14T02:43:00.291Z,2.36
2018-12-14T02:44:00.283Z,2.42
2018-12-14T02:45:00.265Z,2.38
2018-12-14T02:46:00.253Z,2.35
2018-12-14T02:47:00.244Z,2.34
2018-12-14T02:48:00.236Z,2.41
2018-12-14T02:49:00.222Z,2.35
2018-12-14T02:50:00.216Z,2.42
2018-12-14T02:51:00.201Z,2.38
2018-12-14T02:52:00.189Z,2.29
2018-12-14T02:53:00.177Z,2.28
2018-12-14T02:54:00.181Z,2.35
2018-12-14T02:55:00.157Z,2.38
2018-12-14T02:56:00.144Z,2.29
2018-12-14T02:57:00.132Z,2.47
2018-12-14T02:58:00.124Z,2.42
2018-12-14T02:59:00.113Z,2.39
2018-12-14T03:00:00.110Z,2.42
2018-12-14T03:01:00.090Z,2.44
2018-12-14T03:02:00.080Z,2.46
2018-12-14T03:03:00.073Z,2.38
2018-12-14T03:04:00.058Z,2.36
2018-12-14T03:05:00.047Z,2.31
2018-12-14T03:06:00.037Z,2.35
2018-12-14T03:07:00.031Z,2.28
2018-12-14T03:08:00.019Z,2.29
2018-12-14T03:09:00.005Z,2.38
2018-12-14T03:09:59.991Z,2.31
2018-12-14T03:10:59.980Z,2.32
2018-12-14T03:11:59.973Z,2.41
2018-12-14T03:12:59.961Z,2.42
2018-12-14T03:13:59.949Z,2.49
2018-12-14T03:14:59.939Z,2.52
2018-12-14T03:16:01.927Z,2.52
2018-12-14T03:16:59.923Z,2.53
2018-12-14T03:17:59.907Z,2.52
2018-12-14T03:18:59.896Z,2.41
2018-12-14T03:19:59.886Z,2.39
2018-12-14T03:20:59.872Z,2.44
2018-12-14T03:21:59.861Z,2.47
2018-12-14T03:22:59.856Z,2.38
2018-12-14T03:23:59.841Z,2.24
2018-12-14T03:24:59.834Z,2.28
2018-12-14T03:25:59.821Z,2.27
2018-12-14T03:26:59.807Z,2.28
2018-12-14T03:27:59.795Z,2.24
2018-12-14T03:28:59.788Z,2.17
2018-12-14T03:29:59.776Z,2.09
2018-12-14T03:30:59.766Z,2.05
2018-12-14T03:31:59.756Z,2.09
2018-12-14T03:32:59.745Z,2.14
2018-12-14T03:33:59.731Z,2.11
2018-12-14T03:34:59.721Z,2.27
2018-12-14T03:35:59.714Z,2.20
2018-12-14T03:36:59.697Z,2.18
2018-12-14T03:37:59.688Z,2.21
2018-12-14T03:38:59.677Z,2.18
2018-12-14T03:39:59.665Z,2.09
2018-12-14T03:40:59.654Z,2.09
2018-12-14T03:41:59.654Z,2.03
2018-12-14T03:42:59.632Z,2.14
2018-12-14T03:43:59.624Z,2.14
2018-12-14T03:44:59.615Z,2.13
2018-12-14T03:45:59.599Z,2.06
2018-12-14T03:46:59.591Z,2.23
2018-12-14T03:47:59.582Z,2.28
2018-12-14T03:48:59.572Z,2.20
2018-12-14T03:49:59.559Z,2.18
2018-12-14T03:50:59.545Z,2.27
2018-12-14T03:51:59.535Z,2.21
2018-12-14T03:52:59.523Z,2.21
2018-12-14T03:53:59.513Z,2.24
2018-12-14T03:54:59.501Z,2.20
2018-12-14T03:55:59.490Z,2.14
2018-12-14T03:56:59.489Z,2.29
2018-12-14T03:57:59.468Z,2.21
2018-12-14T03:58:59.455Z,2.10
2018-12-14T03:59:59.453Z,2.14
2018-12-14T04:00:59.442Z,2.06
2018-12-14T04:01:59.424Z,2.06
2018-12-14T04:02:59.415Z,2.03
2018-12-14T04:03:59.406Z,2.06
2018-12-14T04:04:59.390Z,2.11
2018-12-14T04:05:59.386Z,2.14
2018-12-14T04:06:59.370Z,2.06
2018-12-14T04:07:59.357Z,2.06
2018-12-14T04:08:59.348Z,2.14
2018-12-14T04:09:59.336Z,2.14
2018-12-14T04:10:59.325Z,2.09
2018-12-14T04:11:59.312Z,2.18
2018-12-14T04:12:59.303Z,2.21
2018-12-14T04:13:59.297Z,2.10
2018-12-14T04:14:59.282Z,2.13
2018-12-14T04:15:59.268Z,2.20
2018-12-14T04:16:59.259Z,2.14
2018-12-14T04:17:59.249Z,2.11
2018-12-14T04:18:59.243Z,2.05
2018-12-14T04:19:59.223Z,2.03
2018-12-14T04:20:59.213Z,2.03
2018-12-14T04:21:59.201Z,2.10
2018-12-14T04:22:59.190Z,2.03
2018-12-14T04:23:59.179Z,2.00
2018-12-14T04:24:59.171Z,2.03
2018-12-14T04:25:59.156Z,2.00
2018-12-14T04:26:59.146Z,2.06
2018-12-14T04:27:59.136Z,2.11
2018-12-14T04:28:59.131Z,2.02
2018-12-14T04:29:59.113Z,2.11
2018-12-14T04:30:59.101Z,2.10
2018-12-14T04:31:59.097Z,2.14
2018-12-14T04:32:59.078Z,2.00
2018-12-14T04:33:59.071Z,1.99
2018-12-14T04:34:59.060Z,2.02
2018-12-14T04:35:59.049Z,2.05
2018-12-14T04:36:59.035Z,1.98
2018-12-14T04:37:59.022Z,2.05
2018-12-14T04:38:59.020Z,2.09
2018-12-14T04:39:59.013Z,1.96
2018-12-14T04:40:58.989Z,1.95
2018-12-14T04:41:58.977Z,1.99
2018-12-14T04:42:58.983Z,1.99
2018-12-14T04:43:58.962Z,1.96
2018-12-14T04:44:58.946Z,1.93
2018-12-14T04:45:58.933Z,1.91
2018-12-14T04:46:58.924Z,1.96
2018-12-14T04:47:58.911Z,2.03
2018-12-14T04:48:58.909Z,2.05
2018-12-14T04:49:58.893Z,2.10
2018-12-14T04:50:58.877Z,1.99
2018-12-14T04:51:58.867Z,2.05
2018-12-14T04:52:58.859Z,2.00
2018-12-14T04:53:58.849Z,1.95
2018-12-14T04:54:58.832Z,1.96
2018-12-14T04:55:58.830Z,1.93
2018-12-14T04:56:58.814Z,2.03
2018-12-14T04:57:58.813Z,2.03
2018-12-14T04:58:58.794Z,1.99
2018-12-14T04:59:58.777Z,2.00
2018-12-14T05:00:58.767Z,2.02
2018-12-14T05:01:58.757Z,2.02
2018-12-14T05:02:58.743Z,2.09
2018-12-14T05:03:58.734Z,2.05
2018-12-14T05:04:58.722Z,2.03
2018-12-14T05:05:58.711Z,2.06
2018-12-14T05:06:58.699Z,2.06
2018-12-14T05:07:58.690Z,2.00
2018-12-14T05:08:58.677Z,2.13
2018-12-14T05:09:58.668Z,2.10
2018-12-14T05:10:58.657Z,2.05
2018-12-14T05:11:58.645Z,2.05
2018-12-14T05:12:58.642Z,1.99
2018-12-14T05:13:58.623Z,2.13
2018-12-14T05:14:58.616Z,2.00
2018-12-14T05:15:58.604Z,2.10
2018-12-14T05:16:58.594Z,2.03
2018-12-14T05:17:58.578Z,2.14
2018-12-14T05:18:58.569Z,2.09
2018-12-14T05:19:58.568Z,2.17
2018-12-14T05:20:58.546Z,2.11
2018-12-14T05:21:58.542Z,2.03
2018-12-14T05:22:58.532Z,2.03
2018-12-14T05:23:58.515Z,2.10
2018-12-14T05:24:58.501Z,2.02
2018-12-14T05:25:58.496Z,2.06
2018-12-14T05:26:58.480Z,2.00
2018-12-14T05:27:58.473Z,2.06
2018-12-14T05:28:58.467Z,2.03
2018-12-14T05:29:58.451Z,2.11
2018-12-14T05:30:58.439Z,2.10
2018-12-14T05:31:58.425Z,2.06
2018-12-14T05:32:58.418Z,2.11
2018-12-14T05:33:58.409Z,2.16
2018-12-14T05:34:58.392Z,2.13
2018-12-14T05:35:58.387Z,2.13
2018-12-14T05:36:58.372Z,2.23
2018-12-14T05:37:58.366Z,2.20
2018-12-14T05:38:58.346Z,2.23
2018-12-14T05:39:58.339Z,2.29
2018-12-14T05:40:58.326Z,2.29
2018-12-14T05:41:58.315Z,2.28
2018-12-14T05:43:02.492Z,2.32
2018-12-14T05:43:58.291Z,2.28
2018-12-14T05:44:58.285Z,2.20
2018-12-14T05:45:58.280Z,2.29
2018-12-14T05:46:58.286Z,2.23
2018-12-14T05:47:58.294Z,2.20
2018-12-14T05:48:58.297Z,2.09
2018-12-14T05:49:58.231Z,2.16
2018-12-14T05:50:58.233Z,2.10
2018-12-14T05:51:58.235Z,2.10
2018-12-14T05:52:58.242Z,2.10
2018-12-14T05:53:58.185Z,2.05
2018-12-14T05:54:58.171Z,2.11
2018-12-14T05:55:58.169Z,2.20
2018-12-14T05:56:58.156Z,2.00
2018-12-14T05:57:58.140Z,2.03
2018-12-14T05:58:58.129Z,2.02
2018-12-14T05:59:58.116Z,2.05
2018-12-14T06:00:58.106Z,2.14
2018-12-14T06:01:58.095Z,2.20
2018-12-14T06:02:58.087Z,2.14
2018-12-14T06:03:58.075Z,2.14
2018-12-14T06:04:58.060Z,2.03
2018-12-14T06:05:58.051Z,2.14
2018-12-14T06:06:58.041Z,2.13
2018-12-14T06:07:58.027Z,2.17
2018-12-14T06:08:58.041Z,2.03
2018-12-14T06:09:58.007Z,2.02
2018-12-14T06:10:57.994Z,2.02
2018-12-14T06:11:57.991Z,2.03
2018-12-14T06:12:57.972Z,1.95
2018-12-14T06:13:57.962Z,1.98
2018-12-14T06:14:57.951Z,1.93
2018-12-14T06:15:57.943Z,2.02
2018-12-14T06:16:57.930Z,2.06
2018-12-14T06:17:57.917Z,2.05
2018-12-14T06:18:57.906Z,2.06
2018-12-14T06:19:57.898Z,2.02
2018-12-14T06:20:57.884Z,2.13
2018-12-14T06:21:57.874Z,2.03
2018-12-14T06:22:57.866Z,2.03
2018-12-14T06:23:57.852Z,2.10
2018-12-14T06:24:57.842Z,2.03
2018-12-14T06:25:57.830Z,2.00
2018-12-14T06:26:57.817Z,2.02
2018-12-14T06:27:57.806Z,2.05
2018-12-14T06:28:57.803Z,2.14
2018-12-14T06:29:57.783Z,2.05
2018-12-14T06:30:57.772Z,2.13
2018-12-14T06:31:57.761Z,2.13
2018-12-14T06:32:57.754Z,2.02
2018-12-14T06:33:57.743Z,2.00
2018-12-14T06:34:57.727Z,2.03
2018-12-14T06:35:57.724Z,1.99
2018-12-14T06:36:57.713Z,1.99
2018-12-14T06:37:57.693Z,2.09
2018-12-14T06:38:57.687Z,2.05
2018-12-14T06:39:57.675Z,2.11
2018-12-14T06:40:58.292Z,2.03
2018-12-14T06:41:57.655Z,2.10
2018-12-14T06:42:57.639Z,2.00
2018-12-14T06:43:57.627Z,2.06
2018-12-14T06:44:57.623Z,2.05
2018-12-14T06:45:57.605Z,2.03
2018-12-14T06:46:57.598Z,1.99
2018-12-14T06:47:57.590Z,2.09
2018-12-14T06:48:57.571Z,1.98
2018-12-14T06:49:57.563Z,1.93
2018-12-14T06:50:57.550Z,1.96
2018-12-14T06:51:57.542Z,1.96
2018-12-14T06:52:57.531Z,1.98
2018-12-14T06:53:57.515Z,1.96
2018-12-14T06:54:57.504Z,1.96
2018-12-14T06:55:57.493Z,1.93
2018-12-14T06:56:57.484Z,1.96
2018-12-14T06:57:57.472Z,1.95
2018-12-14T06:58:57.462Z,1.93
2018-12-14T06:59:57.449Z,1.95
2018-12-14T07:00:57.438Z,1.95
2018-12-14T07:01:57.431Z,2.00
2018-12-14T07:02:57.414Z,2.05
2018-12-14T07:03:57.404Z,2.14
2018-12-14T07:04:57.394Z,2.10
2018-12-14T07:05:57.390Z,2.10
2018-12-14T07:07:03.854Z,2.14
2018-12-14T07:08:21.843Z,2.16
2018-12-14T07:09:21.835Z,2.02
2018-12-14T07:10:21.820Z,2.10
2018-12-14T07:11:21.806Z,2.02
2018-12-14T07:12:21.795Z,2.05
2018-12-14T07:13:22.133Z,2.09
2018-12-14T07:14:21.772Z,2.03
2018-12-14T07:15:21.769Z,2.05
2018-12-14T07:16:21.756Z,2.09
2018-12-14T07:17:21.754Z,1.96
2018-12-14T07:18:21.735Z,1.95
2018-12-14T07:19:21.721Z,1.96
2018-12-14T07:20:21.712Z,2.00
2018-12-14T07:21:21.703Z,1.96
2018-12-14T07:22:21.684Z,1.95
2018-12-14T07:23:21.681Z,1.91
2018-12-14T07:24:21.705Z,2.00
2018-12-14T07:25:21.676Z,2.02
2018-12-14T07:26:21.640Z,1.95
2018-12-14T07:27:21.629Z,1.98
2018-12-14T07:28:21.616Z,1.93
2018-12-14T07:29:21.609Z,1.93
2018-12-14T07:30:21.595Z,1.98
2018-12-14T07:31:21.584Z,1.96
2018-12-14T07:32:21.584Z,1.98
2018-12-14T07:33:21.564Z,1.92
2018-12-14T07:34:21.550Z,1.98
2018-12-14T07:35:21.538Z,1.98
2018-12-14T07:36:21.528Z,2.05
2018-12-14T07:37:21.517Z,2.09
2018-12-14T07:38:21.509Z,1.92
2018-12-14T07:39:21.495Z,2.05
2018-12-14T07:40:21.490Z,2.02
2018-12-14T07:41:21.477Z,2.05
2018-12-14T07:42:21.463Z,2.13
2018-12-14T07:43:21.454Z,2.00
2018-12-14T07:44:21.502Z,2.02
2018-12-14T07:45:21.432Z,2.06
2018-12-14T07:46:21.417Z,2.02
2018-12-14T07:47:21.405Z,1.98
2018-12-14T07:48:21.394Z,1.99
2018-12-14T07:49:21.385Z,2.03
2018-12-14T07:50:21.372Z,2.09
2018-12-14T07:51:21.362Z,2.06
2018-12-14T07:52:21.350Z,1.93
2018-12-14T07:53:21.338Z,2.05
2018-12-14T07:54:21.327Z,2.06
2018-12-14T07:55:21.317Z,2.06
2018-12-14T07:56:21.310Z,2.02
2018-12-14T07:57:21.294Z,2.02
2018-12-14T07:58:21.282Z,2.16
2018-12-14T07:59:21.273Z,2.11
2018-12-14T08:00:21.264Z,2.21
2018-12-14T08:01:21.251Z,2.18
2018-12-14T08:02:21.237Z,2.27
2018-12-14T08:03:21.226Z,2.20
2018-12-14T08:04:21.224Z,2.28
2018-12-14T08:05:21.210Z,2.28
2018-12-14T08:06:21.194Z,2.21
2018-12-14T08:07:21.184Z,2.27
2018-12-14T08:08:21.171Z,2.23
2018-12-14T08:09:21.160Z,2.21
2018-12-14T08:10:21.150Z,2.32
2018-12-14T08:11:21.137Z,2.36
2018-12-14T08:12:21.125Z,2.34
2018-12-14T08:13:21.121Z,2.34
2018-12-14T08:14:21.103Z,2.23
2018-12-14T08:15:21.092Z,2.21
2018-12-14T08:16:21.080Z,2.18
2018-12-14T08:17:21.070Z,2.17
2018-12-14T08:18:21.061Z,2.28
2018-12-14T08:19:21.052Z,2.28
2018-12-14T08:20:21.043Z,2.28
2018-12-14T08:21:21.025Z,2.31
2018-12-14T08:22:21.014Z,2.29
2018-12-14T08:23:21.008Z,2.32
2018-12-14T08:24:21.005Z,2.29
2018-12-14T08:25:20.983Z,2.31
2018-12-14T08:26:20.976Z,2.38
2018-12-14T08:27:20.965Z,2.36
2018-12-14T08:28:20.946Z,2.35
2018-12-14T08:29:20.939Z,2.41
2018-12-14T08:30:20.933Z,2.36
2018-12-14T08:31:20.917Z,2.34
2018-12-14T08:32:20.906Z,2.34
2018-12-14T08:33:20.891Z,2.41
2018-12-14T08:34:20.881Z,2.39
2018-12-14T08:35:20.876Z,2.39
2018-12-14T08:36:20.859Z,2.47
2018-12-14T08:37:20.847Z,2.49
2018-12-14T08:38:20.835Z,2.56
2018-12-14T08:39:20.832Z,2.59
2018-12-14T08:40:20.817Z,2.53
2018-12-14T08:41:20.802Z,2.53
2018-12-14T08:42:20.794Z,2.47
2018-12-14T08:43:20.783Z,2.49
2018-12-14T08:44:20.769Z,2.34
2018-12-14T08:45:20.759Z,2.49
2018-12-14T08:46:20.747Z,2.41
2018-12-14T08:47:20.736Z,2.27
2018-12-14T08:48:20.726Z,2.34
2018-12-14T08:49:20.721Z,2.38
2018-12-14T08:50:20.706Z,2.49
2018-12-14T08:51:20.694Z,2.35
2018-12-14T08:52:20.683Z,2.41
2018-12-14T08:53:20.674Z,2.42
2018-12-14T08:54:20.662Z,2.38
2018-12-14T08:55:20.646Z,2.36
2018-12-14T08:56:20.638Z,2.38
2018-12-14T08:57:20.628Z,2.44
2018-12-14T08:58:20.614Z,2.39
2018-12-14T08:59:20.601Z,2.46
2018-12-14T09:00:20.592Z,2.49
2018-12-14T09:01:20.581Z,2.46
2018-12-14T09:02:20.570Z,2.50
2018-12-14T09:03:20.557Z,2.52
2018-12-14T09:04:20.546Z,2.50
2018-12-14T09:05:20.533Z,2.46
2018-12-14T09:06:20.523Z,2.49
2018-12-14T09:07:24.557Z,2.50
2018-12-14T09:08:20.506Z,2.46
2018-12-14T09:09:20.565Z,2.57
2018-12-14T09:10:20.479Z,2.56
2018-12-14T09:11:20.467Z,2.57
2018-12-14T09:12:20.455Z,2.59
2018-12-14T09:13:20.445Z,2.53
2018-12-14T09:14:20.433Z,2.54
2018-12-14T09:15:20.422Z,2.59
2018-12-14T09:16:20.412Z,2.60
2018-12-14T09:17:20.401Z,2.53
2018-12-14T09:18:20.395Z,2.69
2018-12-14T09:19:20.380Z,2.65
2018-12-14T09:20:20.370Z,2.69
2018-12-14T09:21:20.362Z,2.60
2018-12-14T09:22:20.344Z,2.59
2018-12-14T09:23:20.342Z,2.57
2018-12-14T09:24:20.325Z,2.62
2018-12-14T09:25:20.319Z,2.59
2018-12-14T09:26:20.306Z,2.71
2018-12-14T09:27:20.288Z,2.72
2018-12-14T09:28:20.279Z,2.69
2018-12-14T09:29:20.266Z,2.68
2018-12-14T09:30:20.256Z,2.68
2018-12-14T09:31:20.243Z,2.69
2018-12-14T09:32:20.231Z,2.76
2018-12-14T09:33:20.226Z,2.71
2018-12-14T09:34:20.209Z,2.73
2018-12-14T09:35:20.201Z,2.79
2018-12-14T09:36:20.193Z,2.75
2018-12-14T09:37:20.181Z,2.76
2018-12-14T09:38:20.172Z,2.75
2018-12-14T09:39:20.152Z,2.78
2018-12-14T09:40:20.142Z,2.72
2018-12-14T09:41:20.131Z,2.78
2018-12-14T09:42:20.126Z,2.81
2018-12-14T09:43:20.113Z,2.86
2018-12-14T09:44:20.101Z,2.90
2018-12-14T09:45:20.087Z,2.79
2018-12-14T09:46:20.080Z,2.91
2018-12-14T09:47:20.071Z,2.84
2018-12-14T09:48:20.053Z,2.87
2018-12-14T09:49:20.042Z,2.93
2018-12-14T09:50:20.031Z,2.81
2018-12-14T09:51:20.027Z,2.82
2018-12-14T09:52:20.014Z,2.72
2018-12-14T09:53:20.000Z,2.81
2018-12-14T09:54:19.987Z,2.73
2018-12-14T09:55:19.976Z,2.87
2018-12-14T09:56:19.965Z,2.91
2018-12-14T09:57:19.953Z,2.86
2018-12-14T09:58:19.948Z,2.86
2018-12-14T09:59:19.932Z,2.97
2018-12-14T10:00:19.919Z,2.97
2018-12-14T10:01:19.908Z,2.90
2018-12-14T10:02:19.899Z,2.96
2018-12-14T10:03:19.891Z,2.91
2018-12-14T10:04:19.879Z,2.93
2018-12-14T10:05:19.867Z,2.89
2018-12-14T10:06:19.854Z,3.04
2018-12-14T10:07:19.844Z,2.91
2018-12-14T10:08:19.832Z,3.08
2018-12-14T10:09:19.827Z,3.05
2018-12-14T10:10:19.809Z,3.08
2018-12-14T10:11:19.798Z,3.14
2018-12-14T10:12:19.790Z,3.14
2018-12-14T10:13:19.782Z,3.12
2018-12-14T10:14:19.764Z,3.09
2018-12-14T10:15:19.764Z,3.20
2018-12-14T10:16:19.749Z,3.18
2018-12-14T10:17:19.733Z,3.14
2018-12-14T10:18:19.722Z,3.14
2018-12-14T10:19:19.710Z,3.09
2018-12-14T10:20:19.704Z,3.12
2018-12-14T10:21:19.688Z,3.08
2018-12-14T10:22:19.681Z,3.11
2018-12-14T10:23:19.665Z,3.07
2018-12-14T10:24:19.657Z,2.99
2018-12-14T10:25:19.652Z,2.99
2018-12-14T10:26:19.638Z,3.04
2018-12-14T10:27:19.622Z,3.00
2018-12-14T10:28:19.612Z,3.04
2018-12-14T10:29:19.599Z,3.17
2018-12-14T10:30:19.590Z,3.12
2018-12-14T10:31:19.576Z,3.17
2018-12-14T10:32:19.567Z,3.22
2018-12-14T10:33:19.556Z,3.26
2018-12-14T10:34:19.546Z,3.30
2018-12-14T10:35:19.534Z,3.30
2018-12-14T10:36:19.523Z,3.26
2018-12-14T10:37:19.510Z,3.25
2018-12-14T10:38:19.499Z,3.30
2018-12-14T10:39:19.489Z,3.30
2018-12-14T10:40:19.477Z,3.37
2018-12-14T10:41:19.465Z,3.32
2018-12-14T10:42:19.454Z,3.35
2018-12-14T10:43:19.443Z,3.33
2018-12-14T10:44:19.431Z,3.30
2018-12-14T10:45:19.421Z,3.32
2018-12-14T10:46:19.410Z,3.27
2018-12-14T10:47:19.404Z,3.30
2018-12-14T10:48:19.386Z,3.25
2018-12-14T10:49:19.377Z,3.20
2018-12-14T10:50:19.363Z,3.18
2018-12-14T10:51:19.359Z,3.17
2018-12-14T10:52:19.344Z,3.18
2018-12-14T10:53:19.331Z,3.29
2018-12-14T10:54:19.329Z,3.17
2018-12-14T10:55:19.313Z,3.29
2018-12-14T10:56:19.324Z,3.29
2018-12-14T10:57:19.317Z,3.30
2018-12-14T10:58:20.458Z,3.29
2018-12-14T10:59:19.264Z,3.43
2018-12-14T11:00:19.263Z,3.45
2018-12-14T11:01:19.270Z,3.50
2018-12-14T11:02:19.274Z,3.48
2018-12-14T11:03:19.219Z,3.58
2018-12-14T11:04:19.207Z,3.54
2018-12-14T11:05:19.203Z,3.58
2018-12-14T11:06:19.190Z,3.51
2018-12-14T11:07:19.178Z,3.51
2018-12-14T11:08:19.160Z,3.48
2018-12-14T11:09:19.149Z,3.45
2018-12-14T11:10:19.137Z,3.47
2018-12-14T11:11:19.126Z,3.50
2018-12-14T11:12:19.115Z,3.50
2018-12-14T11:13:19.107Z,3.47
2018-12-14T11:14:19.092Z,3.48
2018-12-14T11:15:19.085Z,3.59
2018-12-14T11:16:19.068Z,3.58
2018-12-14T11:17:19.056Z,3.54
2018-12-14T11:18:19.050Z,3.58
2018-12-14T11:19:19.033Z,3.58
2018-12-14T11:20:19.024Z,3.59
2018-12-14T11:21:19.013Z,3.68
2018-12-14T11:22:18.999Z,3.61
2018-12-14T11:23:18.989Z,3.63
2018-12-14T11:24:18.985Z,3.50
2018-12-14T11:25:18.967Z,3.43
2018-12-14T11:26:18.959Z,3.43
2018-12-14T11:27:18.949Z,3.27
2018-12-14T11:28:18.936Z,3.35
2018-12-14T11:29:18.926Z,3.32
2018-12-14T11:30:18.960Z,3.40
2018-12-14T11:31:18.901Z,3.40
2018-12-14T11:32:18.885Z,3.54
2018-12-14T11:33:18.874Z,3.48
2018-12-14T11:34:18.862Z,3.59
2018-12-14T11:35:18.852Z,3.54
2018-12-14T11:36:18.839Z,3.58
2018-12-14T11:37:18.829Z,3.68
2018-12-14T11:38:18.816Z,3.58
2018-12-14T11:39:18.804Z,3.61
2018-12-14T11:40:18.792Z,3.63
2018-12-14T11:41:18.825Z,3.58
2018-12-14T11:42:18.770Z,3.61
2018-12-14T11:43:18.758Z,3.54
2018-12-14T11:44:21.305Z,3.59
2018-12-14T11:45:18.736Z,3.61
2018-12-14T11:46:18.731Z,3.73
2018-12-14T11:47:18.717Z,3.73
2018-12-14T11:48:18.706Z,3.73
2018-12-14T11:49:18.762Z,3.75
2018-12-14T11:50:18.689Z,3.68
2018-12-14T11:51:18.669Z,3.62
2018-12-14T11:52:18.657Z,3.77
2018-12-14T11:53:18.646Z,3.75
2018-12-14T11:54:18.635Z,3.81
2018-12-14T11:55:18.621Z,3.84
2018-12-14T11:56:18.611Z,3.81
2018-12-14T11:57:18.598Z,3.79
2018-12-14T11:58:18.590Z,3.83
2018-12-14T11:59:18.575Z,3.86
2018-12-14T12:00:18.570Z,3.80
2018-12-14T12:01:18.556Z,3.84
2018-12-14T12:02:18.541Z,3.89
2018-12-14T12:03:18.534Z,3.91
2018-12-14T12:04:18.521Z,3.90
2018-12-14T12:05:18.505Z,3.90
2018-12-14T12:06:18.501Z,3.81
2018-12-14T12:07:18.484Z,3.89
2018-12-14T12:08:18.470Z,3.89
2018-12-14T12:09:18.477Z,3.84
2018-12-14T12:10:18.458Z,3.81
2018-12-14T12:11:18.438Z,3.84
2018-12-14T12:12:18.433Z,3.75
2018-12-14T12:13:18.417Z,3.75
2018-12-14T12:14:18.406Z,3.79
2018-12-14T12:15:18.393Z,3.73
2018-12-14T12:16:18.384Z,3.68
2018-12-14T12:17:18.371Z,3.68
2018-12-14T12:18:18.562Z,3.72
2018-12-14T12:19:18.346Z,3.80
2018-12-14T12:20:18.342Z,3.73
2018-12-14T12:21:18.323Z,3.83
2018-12-14T12:22:18.313Z,3.79
2018-12-14T12:23:18.302Z,3.80
2018-12-14T12:24:18.299Z,3.79
2018-12-14T12:25:18.283Z,3.75
2018-12-14T12:26:18.269Z,3.75
2018-12-14T12:28:18.244Z,3.77
2018-12-14T12:29:18.231Z,3.73
2018-12-14T12:30:18.220Z,3.73
2018-12-14T12:31:18.217Z,3.77
2018-12-14T12:32:18.198Z,3.72
2018-12-14T12:33:18.186Z,3.72
2018-12-14T12:34:18.176Z,3.73
2018-12-14T12:35:18.162Z,3.77
2018-12-14T12:36:18.163Z,3.77
2018-12-14T12:37:18.142Z,3.73
2018-12-14T12:38:18.130Z,3.73
2018-12-14T12:39:18.123Z,3.73
2018-12-14T12:40:18.119Z,3.79
2018-12-14T12:41:18.094Z,3.79
2018-12-14T12:42:18.089Z,3.83
2018-12-14T12:43:18.075Z,3.79
2018-12-14T12:44:18.061Z,3.66
2018-12-14T12:45:18.048Z,3.73
2018-12-14T12:46:18.037Z,3.69
2018-12-14T12:47:18.029Z,3.69
2018-12-14T12:48:18.015Z,3.59
2018-12-14T12:49:18.002Z,3.53
2018-12-14T12:50:17.990Z,3.54
2018-12-14T12:51:17.978Z,3.54
2018-12-14T12:52:17.966Z,3.45
2018-12-14T12:53:17.956Z,3.43
2018-12-14T12:54:17.947Z,3.36
2018-12-14T12:55:17.934Z,3.37
2018-12-14T12:56:17.926Z,3.48
2018-12-14T12:57:17.911Z,3.50
2018-12-14T12:58:17.900Z,3.59
2018-12-14T12:59:17.888Z,3.55
2018-12-14T13:00:17.883Z,3.61
2018-12-14T13:01:17.868Z,3.59
2018-12-14T13:02:17.853Z,3.62
2018-12-14T13:03:17.849Z,3.69
2018-12-14T13:04:17.833Z,3.73
2018-12-14T13:05:17.818Z,3.62
2018-12-14T13:06:17.808Z,3.75
2018-12-14T13:07:17.796Z,3.72
2018-12-14T13:08:17.784Z,3.75
2018-12-14T13:09:17.772Z,3.61
2018-12-14T13:10:17.761Z,3.54
2018-12-14T13:11:17.753Z,3.61
2018-12-14T13:12:17.742Z,3.63
2018-12-14T13:13:17.728Z,3.61
2018-12-14T13:14:17.724Z,3.61
2018-12-14T13:15:17.708Z,3.58
2018-12-14T13:16:17.698Z,3.54
2018-12-14T13:17:17.683Z,3.55
2018-12-14T13:18:17.669Z,3.45
2018-12-14T13:19:17.663Z,3.35